Time;durP1;ratioP1;P1;durP2;ratioP2;P2;SDS_P1;SDS_P2;PMS_P1;PMS_P2;Temp;Humidity;BMP_temperature;BMP_pressure;BME280_temperature;BME280_humidity;BME280_pressure;Samples;Min_cycle;Max_cycle;Signal;HPM_P1;HPM_P2
2022/11/28 00:00:51;;;;;;;17.00;12.20;;;5.80;99.90;;;;;;5084738;28;20505;-68
2022/11/28 00:03:18;;;;;;;17.93;12.87;;;5.70;99.90;;;;;;5084722;28;20505;-68
2022/11/28 00:05:45;;;;;;;19.10;12.73;;;5.70;99.90;;;;;;5084876;28;20532;-67
2022/11/28 00:08:12;;;;;;;21.90;13.57;;;5.60;99.90;;;;;;5084302;28;20549;-67
2022/11/28 00:10:39;;;;;;;20.50;13.67;;;5.60;99.90;;;;;;5083885;28;20536;-67
2022/11/28 00:13:06;;;;;;;20.90;13.30;;;5.60;99.90;;;;;;5084114;28;20476;-67
2022/11/28 00:15:33;;;;;;;20.73;13.37;;;5.60;99.90;;;;;;5084046;28;20465;-67
2022/11/28 00:18:02;;;;;;;19.27;14.20;;;5.60;99.90;;;;;;5083340;28;20456;-67
2022/11/28 00:20:30;;;;;;;21.63;13.13;;;5.60;99.90;;;;;;5083223;28;20458;-68
2022/11/28 00:22:57;;;;;;;20.63;14.07;;;5.50;99.90;;;;;;5082397;28;20527;-68
2022/11/28 00:25:24;;;;;;;19.60;13.70;;;5.50;99.90;;;;;;5083469;28;20493;-67
2022/11/28 00:27:51;;;;;;;19.43;13.27;;;5.60;99.90;;;;;;5083563;28;20492;-68
2022/11/28 00:30:18;;;;;;;23.13;14.60;;;5.50;99.90;;;;;;5083806;28;20486;-68
2022/11/28 00:32:45;;;;;;;20.53;14.30;;;5.50;99.90;;;;;;5083688;28;20493;-68
2022/11/28 00:35:13;;;;;;;23.80;15.63;;;5.50;99.90;;;;;;5084095;28;20486;-67
2022/11/28 00:37:40;;;;;;;25.57;14.93;;;5.50;99.90;;;;;;5083722;28;20468;-66
2022/11/28 00:40:08;;;;;;;21.17;15.87;;;5.40;99.90;;;;;;5083683;28;20492;-67
2022/11/28 00:42:35;;;;;;;22.20;14.83;;;5.40;99.90;;;;;;5083062;28;20478;-68
2022/11/28 00:45:01;;;;;;;29.50;15.10;;;5.40;99.90;;;;;;5082717;28;20946;-68
2022/11/28 00:47:28;;;;;;;21.80;14.90;;;5.40;99.90;;;;;;5082811;28;20489;-67
2022/11/28 00:49:55;;;;;;;21.60;15.33;;;5.40;99.90;;;;;;5083885;28;20826;-68
2022/11/28 00:52:23;;;;;;;21.00;14.70;;;5.40;99.90;;;;;;5083881;28;20776;-68
2022/11/28 00:54:50;;;;;;;22.97;15.17;;;5.40;99.90;;;;;;5082611;28;20522;-68
2022/11/28 00:57:17;;;;;;;23.13;15.37;;;5.40;99.90;;;;;;5083152;28;20470;-67
2022/11/28 00:59:44;;;;;;;19.80;14.83;;;5.40;99.90;;;;;;5082787;28;20499;-68
2022/11/28 01:02:11;;;;;;;24.50;15.53;;;5.40;99.90;;;;;;5083803;28;20514;-66
2022/11/28 01:04:37;;;;;;;23.97;14.70;;;5.40;99.90;;;;;;5083760;28;20486;-68
2022/11/28 01:07:04;;;;;;;23.67;15.07;;;5.40;99.90;;;;;;5083941;28;20458;-66
2022/11/28 01:09:33;;;;;;;18.63;14.50;;;5.40;99.90;;;;;;5083515;28;20486;-68
2022/11/28 01:11:59;;;;;;;22.13;14.70;;;5.40;99.90;;;;;;5082650;28;20902;-68
2022/11/28 01:14:26;;;;;;;22.00;14.63;;;5.40;99.90;;;;;;5083532;28;20462;-67
2022/11/28 01:16:53;;;;;;;23.60;15.13;;;5.40;99.90;;;;;;5084295;28;20505;-67
2022/11/28 01:19:21;;;;;;;22.40;14.87;;;5.50;99.90;;;;;;5083304;28;20553;-67
2022/11/28 01:21:48;;;;;;;19.80;14.43;;;5.40;99.90;;;;;;5082479;28;20492;-67
2022/11/28 01:24:15;;;;;;;25.60;15.40;;;5.40;99.90;;;;;;5081123;28;20458;-68
2022/11/28 01:26:43;;;;;;;23.00;15.30;;;5.40;99.90;;;;;;5081766;28;20459;-68
2022/11/28 01:29:11;;;;;;;19.20;14.90;;;5.40;99.90;;;;;;5081442;28;20541;-69
2022/11/28 01:31:38;;;;;;;22.43;13.97;;;5.30;99.90;;;;;;5081317;28;20454;-68
2022/11/28 01:34:05;;;;;;;21.80;14.63;;;5.30;99.90;;;;;;5082481;28;20899;-68
2022/11/28 01:36:31;;;;;;;26.50;14.00;;;5.30;99.90;;;;;;5081202;28;20998;-69
2022/11/28 01:38:59;;;;;;;22.03;15.43;;;5.20;99.90;;;;;;5081635;28;20450;-67
2022/11/28 01:41:27;;;;;;;22.53;14.53;;;5.20;99.90;;;;;;5082093;28;20454;-69
2022/11/28 01:44:01;;;;;;;20.50;14.40;;;5.20;99.90;;;;;;5082631;28;20461;-67
2022/11/28 01:46:29;;;;;;;23.60;14.57;;;5.20;99.90;;;;;;5082891;28;20445;-67
2022/11/28 01:48:59;;;;;;;21.23;12.87;;;5.20;99.90;;;;;;5082393;28;20494;-67
2022/11/28 01:51:26;;;;;;;17.93;13.63;;;5.20;99.90;;;;;;5082594;28;20756;-68
2022/11/28 01:53:54;;;;;;;20.03;13.00;;;5.20;99.90;;;;;;5081883;28;20454;-68
2022/11/28 01:56:26;;;;;;;16.27;12.20;;;5.20;99.90;;;;;;5081453;28;20553;-67
2022/11/28 01:59:00;;;;;;;18.43;13.43;;;5.20;99.90;;;;;;5082189;28;20470;-68
2022/11/28 02:01:27;;;;;;;19.57;14.10;;;5.20;99.90;;;;;;5081156;28;20466;-66
2022/11/28 02:03:55;;;;;;;20.17;13.50;;;5.20;99.90;;;;;;5080728;28;20578;-67
2022/11/28 02:06:24;;;;;;;18.63;12.97;;;5.20;99.90;;;;;;5080963;28;20494;-67
2022/11/28 02:08:52;;;;;;;16.87;12.40;;;5.20;99.90;;;;;;5081076;28;20550;-67
2022/11/28 02:11:44;;;;;;;16.77;11.33;;;5.20;99.90;;;;;;5081902;28;20458;-67
2022/11/28 02:14:25;;;;;;;19.50;13.23;;;5.30;99.90;;;;;;5083467;28;20494;-67
2022/11/28 02:17:04;;;;;;;16.37;12.47;;;5.30;99.90;;;;;;5080491;28;20470;-67
2022/11/28 02:20:10;;;;;;;19.97;13.37;;;5.30;99.90;;;;;;5081148;28;20442;-67
2022/11/28 02:22:46;;;;;;;17.00;12.93;;;5.30;99.90;;;;;;5080758;28;20486;-67
2022/11/28 02:25:43;;;;;;;18.30;12.63;;;5.30;99.90;;;;;;5081936;28;20524;-67
2022/11/28 02:28:46;;;;;;;17.70;12.40;;;5.30;99.90;;;;;;5080359;28;20946;-67
2022/11/28 02:31:33;;;;;;;16.73;11.90;;;5.20;99.90;;;;;;5081206;28;20500;-67
2022/11/28 02:34:09;;;;;;;18.20;13.07;;;5.20;99.90;;;;;;5081322;28;20444;-67
2022/11/28 02:36:43;;;;;;;19.67;12.17;;;5.20;99.90;;;;;;5080910;28;20474;-67
2022/11/28 02:39:14;;;;;;;17.70;12.40;;;5.20;99.90;;;;;;5081274;28;20541;-67
2022/11/28 02:41:45;;;;;;;17.90;12.50;;;5.20;99.90;;;;;;5080962;28;20434;-67
2022/11/28 02:44:16;;;;;;;16.90;12.73;;;5.20;99.90;;;;;;5080934;28;20469;-67
2022/11/28 02:46:49;;;;;;;18.20;12.63;;;5.10;99.90;;;;;;5080563;28;20865;-66
2022/11/28 02:49:22;;;;;;;18.20;12.40;;;5.10;99.90;;;;;;5081116;28;20533;-67
2022/11/28 02:51:55;;;;;;;16.53;12.20;;;5.10;99.90;;;;;;5081238;28;20506;-68
2022/11/28 02:54:25;;;;;;;15.00;12.07;;;5.10;99.90;;;;;;5081197;28;20532;-67
2022/11/28 02:56:53;;;;;;;19.77;13.47;;;5.10;99.90;;;;;;5081538;28;20447;-67
2022/11/28 02:59:31;;;;;;;16.80;12.67;;;5.10;99.90;;;;;;5080452;28;20482;-67
2022/11/28 03:01:59;;;;;;;18.30;12.50;;;5.10;99.90;;;;;;5080358;28;20438;-67
2022/11/28 03:04:35;;;;;;;17.80;12.53;;;5.10;99.90;;;;;;5080649;28;20454;-67
2022/11/28 03:07:10;;;;;;;18.47;11.83;;;5.10;99.90;;;;;;5080107;28;20485;-67
2022/11/28 03:10:01;;;;;;;19.93;13.03;;;5.10;99.90;;;;;;5080959;28;20470;-67
2022/11/28 03:12:38;;;;;;;20.37;13.57;;;5.00;99.90;;;;;;5074100;28;20474;-66
2022/11/28 03:15:07;;;;;;;19.03;12.80;;;5.00;99.90;;;;;;5080512;28;20937;-67
2022/11/28 03:17:41;;;;;;;19.27;13.00;;;5.00;99.90;;;;;;5081309;28;20465;-66
2022/11/28 03:20:19;;;;;;;24.97;12.60;;;5.00;99.90;;;;;;5080667;28;20468;-66
2022/11/28 03:23:05;;;;;;;21.20;14.37;;;5.00;99.90;;;;;;5079885;28;20974;-68
2022/11/28 03:25:37;;;;;;;19.70;13.20;;;5.00;99.90;;;;;;5080468;28;20498;-68
2022/11/28 03:28:11;;;;;;;22.80;14.77;;;5.00;99.90;;;;;;5081414;28;20443;-67
2022/11/28 03:30:43;;;;;;;23.20;14.60;;;5.00;99.90;;;;;;5080304;28;20537;-68
2022/11/28 03:33:12;;;;;;;21.00;13.73;;;5.00;99.90;;;;;;5081066;28;20816;-68
2022/11/28 03:35:45;;;;;;;24.87;14.70;;;4.90;99.90;;;;;;5083349;28;20544;-66
2022/11/28 03:38:17;;;;;;;24.00;14.47;;;5.00;99.90;;;;;;5085641;28;20443;-67
2022/11/28 03:40:49;;;;;;;21.07;14.40;;;5.00;99.90;;;;;;5084302;28;20443;-66
2022/11/28 03:43:20;;;;;;;22.40;15.00;;;5.00;99.90;;;;;;5083859;28;20946;-67
2022/11/28 03:45:50;;;;;;;21.33;13.93;;;5.00;99.90;;;;;;5084527;28;20438;-68
2022/11/28 03:48:23;;;;;;;23.50;14.37;;;5.00;99.90;;;;;;5084570;28;20776;-67
2022/11/28 03:50:57;;;;;;;23.43;15.90;;;5.00;99.90;;;;;;5084987;28;20474;-68
2022/11/28 03:53:30;;;;;;;20.83;13.80;;;5.00;99.90;;;;;;5083821;28;20481;-67
2022/11/28 03:56:04;;;;;;;20.07;12.87;;;5.00;99.90;;;;;;5083138;28;20537;-67
2022/11/28 03:58:35;;;;;;;25.50;15.77;;;5.00;99.90;;;;;;5083189;28;20462;-67
2022/11/28 04:01:08;;;;;;;23.07;13.80;;;5.00;99.90;;;;;;5083661;28;20499;-67
2022/11/28 04:03:44;;;;;;;27.07;14.73;;;5.00;99.90;;;;;;5082524;28;20498;-67
2022/11/28 04:06:19;;;;;;;23.93;14.20;;;4.90;99.90;;;;;;5082745;28;20470;-66
2022/11/28 04:08:52;;;;;;;23.03;14.40;;;4.90;99.90;;;;;;5083116;28;20433;-67
2022/11/28 04:11:25;;;;;;;22.40;15.33;;;4.90;99.90;;;;;;5084519;28;20446;-66
2022/11/28 04:13:57;;;;;;;24.97;15.93;;;4.90;99.90;;;;;;5084624;28;20533;-67
2022/11/28 04:16:31;;;;;;;21.40;14.10;;;4.90;99.90;;;;;;5084209;28;20496;-66
2022/11/28 04:19:01;;;;;;;24.73;14.07;;;4.80;99.90;;;;;;5084231;28;20446;-68
2022/11/28 04:21:34;;;;;;;25.87;16.47;;;4.80;99.90;;;;;;5083842;28;20482;-68
2022/11/28 04:24:04;;;;;;;23.80;15.13;;;4.80;99.90;;;;;;5084311;28;20961;-68
2022/11/28 04:26:35;;;;;;;25.43;15.97;;;4.80;99.90;;;;;;5084416;28;20906;-66
2022/11/28 04:29:06;;;;;;;20.97;14.30;;;4.80;99.90;;;;;;5084160;28;20474;-67
2022/11/28 04:31:34;;;;;;;22.27;14.60;;;4.80;99.90;;;;;;5084412;28;20521;-67
2022/11/28 04:34:05;;;;;;;22.73;14.40;;;4.70;99.90;;;;;;5084617;28;20446;-67
2022/11/28 04:36:36;;;;;;;22.83;15.63;;;4.70;99.90;;;;;;5084461;28;20525;-67
2022/11/28 04:39:07;;;;;;;23.90;15.10;;;4.70;99.90;;;;;;5084204;28;20529;-67
2022/11/28 04:41:38;;;;;;;26.40;15.20;;;4.70;99.90;;;;;;5084316;28;20482;-67
2022/11/28 04:44:09;;;;;;;24.20;15.30;;;4.70;99.90;;;;;;5084381;28;20474;-68
2022/11/28 04:46:41;;;;;;;25.80;15.00;;;4.80;99.90;;;;;;5083942;28;20438;-68
2022/11/28 04:49:08;;;;;;;22.53;14.87;;;4.80;99.90;;;;;;5085398;28;20468;-67
2022/11/28 04:51:44;;;;;;;23.27;15.00;;;4.80;99.90;;;;;;5084590;28;20482;-66
2022/11/28 04:54:18;;;;;;;24.57;14.90;;;4.80;99.90;;;;;;5083729;28;20583;-66
2022/11/28 04:56:50;;;;;;;22.23;14.63;;;4.80;99.90;;;;;;5083619;28;20503;-67
2022/11/28 04:59:19;;;;;;;22.27;14.33;;;4.80;99.90;;;;;;5083945;28;20782;-67
2022/11/28 05:01:48;;;;;;;21.43;14.73;;;4.80;99.90;;;;;;5082988;28;20549;-67
2022/11/28 05:04:16;;;;;;;22.83;14.20;;;4.90;99.90;;;;;;5081996;28;20550;-66
2022/11/28 05:06:45;;;;;;;24.20;14.40;;;4.90;99.90;;;;;;5080165;28;20458;-66
2022/11/28 05:09:12;;;;;;;21.77;13.73;;;4.90;99.90;;;;;;5083160;28;20832;-68
2022/11/28 05:11:40;;;;;;;23.63;14.63;;;5.00;99.90;;;;;;5083356;28;20535;-67
2022/11/28 05:14:06;;;;;;;21.63;13.70;;;5.00;99.90;;;;;;5082805;28;20480;-68
2022/11/28 05:16:33;;;;;;;17.80;12.90;;;5.00;99.90;;;;;;5082800;28;20781;-67
2022/11/28 05:19:00;;;;;;;24.57;13.57;;;5.10;99.90;;;;;;5082840;28;20462;-67
2022/11/28 05:21:27;;;;;;;20.47;14.50;;;5.10;99.90;;;;;;5083368;28;20514;-66
2022/11/28 05:23:55;;;;;;;21.70;13.87;;;5.10;99.90;;;;;;5082747;28;20569;-67
2022/11/28 05:26:22;;;;;;;24.00;15.80;;;5.10;99.90;;;;;;5083754;28;20584;-67
2022/11/28 05:28:50;;;;;;;21.50;14.00;;;5.10;99.90;;;;;;5083792;28;20509;-67
2022/11/28 05:31:19;;;;;;;24.33;13.63;;;5.10;99.90;;;;;;5082833;28;20468;-67
2022/11/28 05:33:46;;;;;;;23.10;14.63;;;5.10;99.90;;;;;;5082434;28;20509;-68
2022/11/28 05:36:14;;;;;;;20.70;14.27;;;5.10;99.90;;;;;;5082861;28;20462;-67
2022/11/28 05:38:41;;;;;;;24.10;13.50;;;5.10;99.90;;;;;;5083008;28;20530;-69
2022/11/28 05:41:10;;;;;;;23.03;14.17;;;5.10;99.90;;;;;;5082433;28;20465;-68
2022/11/28 05:43:37;;;;;;;24.73;13.17;;;5.10;99.90;;;;;;5083546;28;20510;-67
2022/11/28 05:46:05;;;;;;;22.60;13.90;;;5.10;99.90;;;;;;5083438;28;20485;-67
2022/11/28 05:48:32;;;;;;;21.80;13.57;;;5.20;99.90;;;;;;5083503;28;20459;-67
2022/11/28 05:50:59;;;;;;;20.70;12.67;;;5.20;99.90;;;;;;5082425;28;20545;-68
2022/11/28 05:53:26;;;;;;;22.20;13.87;;;5.20;99.90;;;;;;5083244;28;20485;-69
2022/11/28 05:55:53;;;;;;;20.90;13.60;;;5.20;99.90;;;;;;5082482;28;20497;-68
2022/11/28 05:58:21;;;;;;;23.67;14.47;;;5.20;99.90;;;;;;5081587;28;20489;-67
2022/11/28 06:00:48;;;;;;;21.27;14.00;;;5.20;99.90;;;;;;5082593;28;20538;-67
2022/11/28 06:03:15;;;;;;;22.80;14.30;;;5.20;99.90;;;;;;5081716;28;20509;-67
2022/11/28 06:05:43;;;;;;;20.43;14.23;;;5.30;99.90;;;;;;5083232;28;20493;-67
2022/11/28 06:08:11;;;;;;;25.13;13.67;;;5.30;99.90;;;;;;5083429;28;20504;-68
2022/11/28 06:10:38;;;;;;;27.90;15.00;;;5.30;99.90;;;;;;5083254;28;20493;-68
2022/11/28 06:13:08;;;;;;;20.37;12.97;;;5.30;99.90;;;;;;5083744;28;20541;-67
2022/11/28 06:15:36;;;;;;;23.37;15.67;;;5.30;99.90;;;;;;5076447;28;20545;-68
2022/11/28 06:18:03;;;;;;;23.83;14.70;;;5.30;99.90;;;;;;5076231;28;21027;-67
2022/11/28 06:20:30;;;;;;;36.43;23.63;;;5.30;99.90;;;;;;5075942;28;20554;-66
2022/11/28 06:22:57;;;;;;;22.70;14.53;;;5.30;99.90;;;;;;5076183;28;20454;-66
2022/11/28 06:25:24;;;;;;;24.67;15.20;;;5.30;99.90;;;;;;5076369;28;20561;-66
2022/11/28 06:27:50;;;;;;;26.30;15.33;;;5.30;99.90;;;;;;5075246;28;20896;-68
2022/11/28 06:30:17;;;;;;;22.67;15.20;;;5.30;99.90;;;;;;5075195;28;20560;-67
2022/11/28 06:32:46;;;;;;;23.23;14.17;;;5.30;99.90;;;;;;5075311;28;20454;-67
2022/11/28 06:35:12;;;;;;;26.10;16.10;;;5.30;99.90;;;;;;5075320;28;20552;-67
2022/11/28 06:37:39;;;;;;;28.00;15.13;;;5.30;99.90;;;;;;5075131;28;20549;-67
2022/11/28 06:40:07;;;;;;;27.43;16.33;;;5.20;99.90;;;;;;5075052;28;20852;-68
2022/11/28 06:42:35;;;;;;;22.80;14.70;;;5.20;99.90;;;;;;5074738;28;20541;-67
2022/11/28 06:45:02;;;;;;;27.60;15.97;;;5.20;99.90;;;;;;5074652;28;20478;-68
2022/11/28 06:47:29;;;;;;;23.40;16.03;;;5.10;99.90;;;;;;5075338;28;20492;-68
2022/11/28 06:49:58;;;;;;;26.37;15.80;;;5.10;99.90;;;;;;5075087;28;20802;-67
2022/11/28 06:52:25;;;;;;;26.40;16.73;;;5.10;99.90;;;;;;5074887;28;20847;-68
2022/11/28 06:54:52;;;;;;;25.33;15.03;;;5.10;99.90;;;;;;5074714;28;20466;-67
2022/11/28 06:57:19;;;;;;;24.93;15.93;;;5.10;99.90;;;;;;5074581;28;20533;-67
2022/11/28 06:59:45;;;;;;;28.80;17.87;;;5.00;99.90;;;;;;5074429;28;20541;-67
2022/11/28 07:02:12;;;;;;;24.47;16.10;;;5.00;99.90;;;;;;5074845;28;20550;-67
2022/11/28 07:04:39;;;;;;;31.03;17.27;;;5.00;99.90;;;;;;5074819;28;20579;-68
2022/11/28 07:07:08;;;;;;;27.03;17.70;;;5.00;99.90;;;;;;5074766;28;20473;-67
2022/11/28 07:09:34;;;;;;;32.60;17.33;;;4.90;99.90;;;;;;5074536;28;20453;-67
2022/11/28 07:12:01;;;;;;;29.07;17.80;;;5.00;99.90;;;;;;5074626;28;20538;-67
2022/11/28 07:14:28;;;;;;;28.70;16.40;;;4.90;99.90;;;;;;5074478;28;20550;-67
2022/11/28 07:16:55;;;;;;;27.37;18.10;;;4.90;99.90;;;;;;5075406;28;20545;-66
2022/11/28 07:19:22;;;;;;;26.97;17.30;;;4.90;99.90;;;;;;5074699;28;20910;-67
2022/11/28 07:21:49;;;;;;;28.47;17.03;;;4.90;99.90;;;;;;5074122;28;21023;-67
2022/11/28 07:24:18;;;;;;;27.50;17.43;;;4.90;99.90;;;;;;5074456;28;20783;-68
2022/11/28 07:26:45;;;;;;;24.30;16.20;;;5.00;99.90;;;;;;5074026;28;21001;-66
2022/11/28 07:29:15;;;;;;;28.37;17.03;;;4.90;99.90;;;;;;5074227;28;20551;-67
2022/11/28 07:31:42;;;;;;;24.87;16.67;;;5.00;99.90;;;;;;5074233;28;20458;-68
2022/11/28 07:34:10;;;;;;;28.83;16.97;;;5.00;99.90;;;;;;5074163;28;20541;-67
2022/11/28 07:36:37;;;;;;;27.53;18.43;;;5.00;99.90;;;;;;5074206;28;20536;-68
2022/11/28 07:39:07;;;;;;;27.30;16.80;;;5.00;99.90;;;;;;5074345;28;20937;-67
2022/11/28 07:41:35;;;;;;;28.23;18.17;;;5.10;99.90;;;;;;5074229;28;20453;-67
2022/11/28 07:44:04;;;;;;;30.30;16.73;;;5.10;99.90;;;;;;5074044;28;20536;-68
2022/11/28 07:46:32;;;;;;;29.27;16.33;;;5.10;99.90;;;;;;5074835;28;20601;-67
2022/11/28 07:48:59;;;;;;;25.43;16.97;;;5.10;99.90;;;;;;5074538;28;20481;-66
2022/11/28 07:51:28;;;;;;;27.90;16.30;;;5.20;99.90;;;;;;5074717;28;20501;-67
2022/11/28 07:53:55;;;;;;;23.93;15.67;;;5.20;99.90;;;;;;5074359;28;20541;-67
2022/11/28 07:56:24;;;;;;;27.60;17.47;;;5.30;99.90;;;;;;5074626;28;20537;-68
2022/11/28 07:58:52;;;;;;;27.30;15.87;;;5.30;99.90;;;;;;5074394;28;20472;-68
2022/11/28 08:01:21;;;;;;;28.77;17.10;;;5.30;99.90;;;;;;5074826;28;20500;-69
2022/11/28 08:03:48;;;;;;;23.97;16.03;;;5.30;99.90;;;;;;5074957;28;20569;-68
2022/11/28 08:06:17;;;;;;;26.43;15.93;;;5.30;99.90;;;;;;5076037;28;20545;-67
2022/11/28 08:08:45;;;;;;;26.53;15.33;;;5.30;99.90;;;;;;5076743;28;20500;-67
2022/11/28 08:11:14;;;;;;;21.90;14.60;;;5.40;99.90;;;;;;5074428;28;20496;-67
2022/11/28 08:13:41;;;;;;;31.33;15.40;;;5.40;99.90;;;;;;5073975;28;20844;-67
2022/11/28 08:16:12;;;;;;;28.87;17.97;;;5.40;99.90;;;;;;5073948;28;20489;-67
2022/11/28 08:18:39;;;;;;;20.57;14.70;;;5.40;99.90;;;;;;5074444;28;20537;-68
2022/11/28 08:21:08;;;;;;;30.07;15.83;;;5.50;99.90;;;;;;5076346;28;20785;-67
2022/11/28 08:23:36;;;;;;;26.03;16.20;;;5.50;99.90;;;;;;5077718;28;20549;-67
2022/11/28 08:26:05;;;;;;;23.97;15.43;;;5.50;99.90;;;;;;5077725;28;20468;-67
2022/11/28 08:28:32;;;;;;;25.30;14.80;;;5.60;99.90;;;;;;5078165;28;20544;-67
2022/11/28 08:31:00;;;;;;;28.10;16.30;;;5.60;99.90;;;;;;5077915;28;20942;-68
2022/11/28 08:33:29;;;;;;;20.67;15.03;;;5.50;99.90;;;;;;5077751;28;20775;-68
2022/11/28 08:35:55;;;;;;;29.53;15.60;;;5.60;99.90;;;;;;5077440;28;20540;-67
2022/11/28 08:38:22;;;;;;;25.77;15.30;;;5.60;99.90;;;;;;5077547;28;20856;-67
2022/11/28 08:40:49;;;;;;;26.27;15.50;;;5.60;99.90;;;;;;5077153;28;20961;-67
2022/11/28 08:43:16;;;;;;;24.37;15.07;;;5.70;99.90;;;;;;5077498;28;20550;-67
2022/11/28 08:45:43;;;;;;;23.40;15.30;;;5.70;99.90;;;;;;5077289;28;20564;-67
2022/11/28 08:48:10;;;;;;;26.27;15.67;;;5.80;99.90;;;;;;5077061;28;20502;-67
2022/11/28 08:50:39;;;;;;;26.60;15.27;;;5.90;99.90;;;;;;5077178;28;20545;-67
2022/11/28 08:53:06;;;;;;;22.23;15.43;;;5.90;99.90;;;;;;5076660;28;20462;-68
2022/11/28 08:55:33;;;;;;;19.70;14.10;;;6.00;99.90;;;;;;5077147;28;20783;-67
2022/11/28 08:57:59;;;;;;;26.57;17.00;;;6.10;99.90;;;;;;5076534;28;20546;-68
2022/11/28 09:00:26;;;;;;;26.57;16.63;;;6.10;99.90;;;;;;5076727;28;20454;-67
2022/11/28 09:02:53;;;;;;;26.80;17.27;;;6.20;99.90;;;;;;5076711;28;20485;-66
2022/11/28 09:05:20;;;;;;;23.77;14.33;;;6.10;99.90;;;;;;5076889;28;20535;-67
2022/11/28 09:07:48;;;;;;;23.47;15.00;;;6.10;99.90;;;;;;5076883;28;20512;-66
2022/11/28 09:10:15;;;;;;;29.10;16.47;;;6.10;99.90;;;;;;5076601;28;20480;-67
2022/11/28 09:12:42;;;;;;;23.40;15.20;;;6.10;99.90;;;;;;5076344;28;20498;-68
2022/11/28 09:15:09;;;;;;;23.00;15.80;;;6.00;99.90;;;;;;5076773;28;20546;-67
2022/11/28 09:17:36;;;;;;;25.30;16.43;;;5.90;99.90;;;;;;5077095;28;20544;-68
2022/11/28 09:20:04;;;;;;;25.53;15.07;;;5.90;99.90;;;;;;5076588;28;20476;-69
2022/11/28 09:22:31;;;;;;;28.83;14.90;;;5.90;99.90;;;;;;5076173;28;20532;-67
2022/11/28 09:24:59;;;;;;;23.07;15.13;;;5.90;99.90;;;;;;5076588;28;20496;-67
2022/11/28 09:27:26;;;;;;;23.97;14.87;;;6.00;99.90;;;;;;5075998;28;20485;-68
2022/11/28 09:29:53;;;;;;;25.87;15.60;;;6.00;99.90;;;;;;5076655;28;20552;-67
2022/11/28 09:32:19;;;;;;;23.37;15.13;;;6.00;99.90;;;;;;5074958;28;20541;-67
2022/11/28 09:34:46;;;;;;;23.37;15.47;;;6.10;99.90;;;;;;5076711;28;20612;-68
2022/11/28 09:37:13;;;;;;;26.37;15.47;;;6.10;99.90;;;;;;5077081;28;20541;-66
2022/11/28 09:39:41;;;;;;;25.27;15.73;;;6.20;99.90;;;;;;5077571;28;20549;-67
2022/11/28 09:42:16;;;;;;;25.40;14.50;;;6.20;99.90;;;;;;5076872;28;20465;-66
2022/11/28 09:44:49;;;;;;;24.17;15.83;;;6.20;99.90;;;;;;5076726;28;20571;-66
2022/11/28 09:47:21;;;;;;;25.43;15.20;;;6.30;99.90;;;;;;5076350;28;20516;-67
2022/11/28 09:49:52;;;;;;;27.53;15.70;;;6.30;99.90;;;;;;5076192;28;20553;-68
2022/11/28 09:52:36;;;;;;;24.63;15.50;;;6.40;99.90;;;;;;5076079;28;20467;-67
2022/11/28 09:55:16;;;;;;;29.33;16.20;;;6.50;99.90;;;;;;5076729;28;20492;-67
2022/11/28 09:57:47;;;;;;;28.83;15.83;;;6.40;99.90;;;;;;5076416;28;20534;-67
2022/11/28 10:00:20;;;;;;;24.67;15.87;;;6.50;99.90;;;;;;5075719;28;20521;-67
2022/11/28 10:03:01;;;;;;;27.30;15.30;;;6.50;99.90;;;;;;5076172;28;20934;-67
2022/11/28 10:05:36;;;;;;;27.13;14.83;;;6.60;99.90;;;;;;5075745;28;20498;-67
2022/11/28 10:08:21;;;;;;;24.13;14.73;;;6.70;99.90;;;;;;5075735;28;20831;-68
2022/11/28 10:10:56;;;;;;;34.63;23.07;;;6.80;99.90;;;;;;5075686;28;20512;-67
2022/11/28 10:13:32;;;;;;;30.60;18.10;;;6.90;99.90;;;;;;5075571;28;20441;-67
2022/11/28 10:16:05;;;;;;;33.50;17.50;;;7.00;99.90;;;;;;5075617;28;20929;-67
2022/11/28 10:18:39;;;;;;;24.37;16.17;;;7.10;99.90;;;;;;5075436;28;20535;-67
2022/11/28 10:21:19;;;;;;;24.13;15.70;;;7.10;99.90;;;;;;5075429;28;21009;-68
2022/11/28 10:23:48;;;;;;;27.47;15.47;;;7.00;99.90;;;;;;5076289;28;20788;-68
2022/11/28 10:26:20;;;;;;;27.23;15.70;;;7.00;99.90;;;;;;5075295;28;20560;-69
2022/11/28 10:28:51;;;;;;;24.30;16.40;;;7.00;99.90;;;;;;5075041;28;20579;-67
2022/11/28 10:31:26;;;;;;;28.37;16.43;;;7.00;99.90;;;;;;5075185;28;20644;-67
2022/11/28 10:33:57;;;;;;;25.80;16.40;;;7.00;99.90;;;;;;5074948;28;20833;-67
2022/11/28 10:36:28;;;;;;;25.77;16.27;;;6.90;99.90;;;;;;5074861;28;20825;-68
2022/11/28 10:38:56;;;;;;;29.53;16.13;;;6.90;99.90;;;;;;5074933;28;20868;-68
2022/11/28 10:41:28;;;;;;;23.30;15.67;;;6.90;99.90;;;;;;5075092;28;20541;-67
2022/11/28 10:44:03;;;;;;;25.20;14.77;;;6.90;99.90;;;;;;5074533;28;20795;-71
2022/11/28 10:46:43;;;;;;;26.90;16.13;;;6.90;99.90;;;;;;5074488;28;20468;-67
2022/11/28 10:49:23;;;;;;;24.43;15.77;;;6.90;99.90;;;;;;5074977;28;20438;-67
2022/11/28 10:51:58;;;;;;;26.93;15.97;;;6.90;99.90;;;;;;5075126;28;20529;-68
2022/11/28 10:54:54;;;;;;;27.70;17.13;;;7.00;99.90;;;;;;5074429;28;20529;-68
2022/11/28 10:57:26;;;;;;;26.27;16.70;;;7.00;99.90;;;;;;5074792;28;20768;-67
2022/11/28 11:00:05;;;;;;;24.90;15.23;;;7.10;99.90;;;;;;5074575;28;20517;-68
2022/11/28 11:02:37;;;;;;;26.10;15.80;;;7.10;99.90;;;;;;5075632;28;20459;-67
2022/11/28 11:05:05;;;;;;;33.20;17.20;;;7.20;99.90;;;;;;5074664;28;20566;-67
2022/11/28 11:07:33;;;;;;;27.47;16.23;;;7.10;99.90;;;;;;5075606;28;20508;-67
2022/11/28 11:10:12;;;;;;;24.97;13.87;;;7.00;99.90;;;;;;5076382;28;20561;-66
2022/11/28 11:12:39;;;;;;;29.43;17.60;;;7.00;99.90;;;;;;5076155;28;20525;-66
2022/11/28 11:15:18;;;;;;;25.87;15.23;;;7.10;99.90;;;;;;5074638;28;20549;-69
2022/11/28 11:17:45;;;;;;;25.00;16.00;;;7.10;99.90;;;;;;5074973;28;20470;-67
2022/11/28 11:20:31;;;;;;;24.40;14.93;;;7.10;99.90;;;;;;5074453;28;20519;-67
2022/11/28 11:22:59;;;;;;;23.80;14.97;;;7.20;99.90;;;;;;5074524;28;20956;-67
2022/11/28 11:25:28;;;;;;;25.53;17.20;;;7.30;99.90;;;;;;5074520;28;20486;-68
2022/11/28 11:27:58;;;;;;;26.20;15.00;;;7.40;99.90;;;;;;5074864;28;20458;-67
2022/11/28 11:30:33;;;;;;;26.07;15.93;;;7.50;99.90;;;;;;5075549;28;20438;-68
2022/11/28 11:33:06;;;;;;;26.33;15.60;;;7.60;99.90;;;;;;5074521;28;20867;-67
2022/11/28 11:35:36;;;;;;;24.20;15.13;;;7.80;99.90;;;;;;5074981;28;20521;-68
2022/11/28 11:38:17;;;;;;;26.20;15.40;;;7.80;99.90;;;;;;5074492;28;20541;-67
2022/11/28 11:40:44;;;;;;;24.07;14.83;;;7.90;99.90;;;;;;5074347;28;20438;-67
2022/11/28 11:43:26;;;;;;;26.43;15.00;;;7.90;99.90;;;;;;5074260;28;20461;-67
2022/11/28 11:46:09;;;;;;;22.10;14.50;;;8.00;99.90;;;;;;5074317;28;20467;-67
2022/11/28 11:48:38;;;;;;;23.87;15.03;;;8.00;99.90;;;;;;5073773;28;20461;-66
2022/11/28 11:51:05;;;;;;;23.97;14.83;;;8.20;99.90;;;;;;5074017;28;20565;-68
2022/11/28 11:53:32;;;;;;;21.73;14.50;;;8.20;99.90;;;;;;5074630;28;20458;-67
2022/11/28 11:56:02;;;;;;;25.60;15.40;;;8.20;99.90;;;;;;5076557;28;20458;-68
2022/11/28 11:58:42;;;;;;;21.90;14.33;;;8.30;99.90;;;;;;5077896;28;20787;-68
2022/11/28 12:01:13;;;;;;;22.80;15.10;;;8.30;99.90;;;;;;5078937;28;20541;-68
2022/11/28 12:03:42;;;;;;;22.77;14.30;;;8.40;99.90;;;;;;5078088;28;20442;-67
2022/11/28 12:06:14;;;;;;;23.03;13.63;;;8.50;99.90;;;;;;5078069;28;20478;-69
2022/11/28 12:08:47;;;;;;;20.20;14.40;;;8.50;99.90;;;;;;5078297;28;20457;-67
2022/11/28 12:11:20;;;;;;;20.97;14.07;;;8.50;99.90;;;;;;5078014;28;20774;-67
2022/11/28 12:13:47;;;;;;;22.00;13.80;;;8.40;99.90;;;;;;5077991;28;20541;-67
2022/11/28 12:16:36;;;;;;;24.27;13.73;;;8.50;99.90;;;;;;5077905;28;20540;-66
2022/11/28 12:19:14;;;;;;;20.43;14.30;;;8.50;99.90;;;;;;5077678;28;20446;-68
2022/11/28 12:21:50;;;;;;;21.63;14.60;;;8.60;99.90;;;;;;5077385;28;20477;-66
2022/11/28 12:24:21;;;;;;;22.47;13.70;;;8.60;99.90;;;;;;5077264;28;20844;-66
2022/11/28 12:26:51;;;;;;;18.20;12.30;;;8.60;99.90;;;;;;5077423;28;20542;-68
2022/11/28 12:29:41;;;;;;;21.30;13.00;;;8.70;99.90;;;;;;5077231;28;20493;-66
2022/11/28 12:32:27;;;;;;;21.03;13.63;;;8.70;99.90;;;;;;5077390;28;20826;-68
2022/11/28 12:35:08;;;;;;;22.50;13.50;;;8.70;99.90;;;;;;5077554;28;20470;-68
2022/11/28 12:37:47;;;;;;;27.90;14.10;;;8.80;99.90;;;;;;5077337;28;20439;-67
2022/11/28 12:40:24;;;;;;;19.10;13.10;;;8.70;99.90;;;;;;5078012;28;20572;-68
2022/11/28 12:43:05;;;;;;;20.70;14.00;;;8.60;99.90;;;;;;5077583;28;20473;-68
2022/11/28 12:45:44;;;;;;;25.47;14.33;;;8.50;99.90;;;;;;5077243;28;20553;-66
2022/11/28 12:48:40;;;;;;;23.13;14.07;;;8.40;99.90;;;;;;5077777;28;20537;-67
2022/11/28 12:51:16;;;;;;;23.70;15.00;;;8.40;99.90;;;;;;5074958;28;20550;-68
2022/11/28 12:53:56;;;;;;;18.03;13.17;;;8.40;99.90;;;;;;5077782;28;20890;-67